Terminal Aerodrome Forecast
Issued by NWS Charleston, WV

Home | Current Version | Previous Version | Text Only | Print | Product List | Glossary On
Versions: 1 2 3 4 5 6 7 8 9 10 11 12 13 14 15 16 17 18 19 20 21 22 23 24 25 26 27
842
FTUS41 KRLX 081730 AAC
TAFEKN
TAF AMD
KEKN 081730Z 0818/0912 28010G20KT P6SM BKN070
     FM082000 28009G18KT P6SM SCT050
     FM090000 28010G22KT P6SM BKN035
     FM090700 29009G17KT P6SM OVC025
     FM091100 28009G18KT P6SM -SHSN BKN025=

USA.gov is the U.S. government's official web portal to all federal, state and local government web resources and services.